Arboles, Colorado
Current Conditions -  °F | °C
As of 2:53 PM on Tuesday 25 Nov 2014 (Local Time) from KDRO Reporting Station
Clear Clear  
Wind Chill:   Ceiling: Unl
Heat Index:   Visibility: 10mi
Dew Point: -12°   Wind: 10mph
Humidity: 24%   Direction: 250°WSW
Pressure: 30.23"   Gusts: NA
Location:  37.03°N, 107.42°W
Report Text: KDRO 252153Z AUTO 25009KT 10SM CLR 08/M12 A3023 RMK AO2 SLP266 T00781117
Loading
Personal Weather Stations






























Interactive Weather Map New forecast layout! Learn more

10-Day Weather Forecast

Advertisements
Track Severe Weather on mobile